createdAt,value
2019-02-26T00:01:03.522Z,101180.01
2019-02-26T00:03:33.210Z,101181.80
2019-02-26T00:06:03.731Z,101179.64
2019-02-26T00:08:33.524Z,101176.20
2019-02-26T00:11:03.812Z,101173.69
2019-02-26T00:13:34.635Z,101173.69
2019-02-26T00:16:07.956Z,101174.98
2019-02-26T00:18:36.521Z,101167.19
2019-02-26T00:21:05.211Z,101163.26
2019-02-26T00:23:33.599Z,101163.27
2019-02-26T00:26:01.953Z,101169.76
2019-02-26T00:28:30.341Z,101168.46
2019-02-26T00:30:59.531Z,101170.61
2019-02-26T00:33:29.032Z,101165.45
2019-02-26T00:35:57.505Z,101168.86
2019-02-26T00:38:25.896Z,101170.20
2019-02-26T00:40:55.070Z,101166.78
2019-02-26T00:43:27.410Z,101169.34
2019-02-26T00:45:56.004Z,101168.05
2019-02-26T00:48:24.514Z,101160.27
2019-02-26T00:50:54.454Z,101156.81
2019-02-26T00:53:23.587Z,101160.30
2019-02-26T00:55:54.360Z,101158.55
2019-02-26T00:58:23.221Z,101156.81
2019-02-26T01:00:51.685Z,101169.25
2019-02-26T01:03:20.055Z,101168.47
2019-02-26T01:05:48.447Z,101166.35
2019-02-26T01:08:17.560Z,101162.03
2019-02-26T01:10:46.924Z,101158.55
2019-02-26T01:13:15.360Z,101157.25
2019-02-26T01:15:43.830Z,101165.89
2019-02-26T01:18:12.266Z,101165.47
2019-02-26T01:20:40.657Z,101159.00
2019-02-26T01:23:09.003Z,101158.55
2019-02-26T01:25:38.782Z,101150.33
2019-02-26T01:28:07.306Z,101152.09
2019-02-26T01:30:36.212Z,101150.34
2019-02-26T01:33:05.554Z,101155.97
2019-02-26T01:35:35.656Z,101156.32
2019-02-26T01:38:05.135Z,101153.75
2019-02-26T01:40:33.510Z,101148.16
2019-02-26T01:43:03.053Z,101153.69
2019-02-26T01:45:32.455Z,101150.34
2019-02-26T01:48:00.967Z,101152.91
2019-02-26T01:50:30.862Z,101144.69
2019-02-26T01:53:01.080Z,101136.92
2019-02-26T01:55:29.578Z,101123.98
2019-02-26T01:57:58.713Z,101121.81
2019-02-26T02:00:27.819Z,101123.98
2019-02-26T02:02:56.168Z,101122.24
2019-02-26T02:05:28.147Z,101116.20
2019-02-26T02:07:56.010Z,101121.38
2019-02-26T02:10:24.651Z,101114.47
2019-02-26T02:12:55.278Z,101110.56
2019-02-26T02:15:23.740Z,101111.45
2019-02-26T02:17:52.356Z,101108.84
2019-02-26T02:20:21.572Z,101106.68
2019-02-26T02:22:50.142Z,101107.11
2019-02-26T02:25:18.503Z,101098.05
2019-02-26T02:27:49.692Z,101100.66
2019-02-26T02:30:22.945Z,101086.39
2019-02-26T02:32:53.741Z,101087.66
2019-02-26T02:35:19.270Z,101085.95
2019-02-26T02:37:48.062Z,101078.16
2019-02-26T02:40:16.390Z,101075.98
2019-02-26T02:42:48.491Z,101072.08
2019-02-26T02:45:19.615Z,101079.88
2019-02-26T02:47:45.054Z,101071.23
2019-02-26T02:50:15.197Z,101073.41
2019-02-26T02:52:44.668Z,101071.67
2019-02-26T02:55:16.484Z,101063.48
2019-02-26T02:57:43.433Z,101064.34
2019-02-26T03:00:16.782Z,101062.16
2019-02-26T03:02:46.374Z,101062.10
2019-02-26T03:05:15.406Z,101065.50
2019-02-26T03:07:47.944Z,101067.28
2019-02-26T03:10:16.869Z,101065.20
2019-02-26T03:12:48.563Z,101069.91
2019-02-26T03:15:16.349Z,101069.95
2019-02-26T03:17:44.811Z,101069.48
2019-02-26T03:20:14.107Z,101066.88
2019-02-26T03:22:46.096Z,101066.02
2019-02-26T03:25:20.519Z,101070.27
2019-02-26T03:27:46.937Z,101071.14
2019-02-26T03:30:31.487Z,101073.77
2019-02-26T03:32:55.714Z,101070.78
2019-02-26T03:35:23.401Z,101068.16
2019-02-26T03:37:52.404Z,101058.24
2019-02-26T03:40:21.582Z,101065.97
2019-02-26T03:42:50.662Z,101065.97
2019-02-26T03:45:23.887Z,101060.39
2019-02-26T03:47:49.332Z,101058.67
2019-02-26T03:50:17.855Z,101059.11
2019-02-26T03:52:46.288Z,101055.19
2019-02-26T03:55:18.354Z,101056.97
2019-02-26T03:57:47.363Z,101052.64
2019-02-26T04:00:19.506Z,101055.67
2019-02-26T04:02:49.077Z,101056.06
2019-02-26T04:05:17.256Z,101059.03
2019-02-26T04:07:49.030Z,101063.59
2019-02-26T04:10:16.010Z,101057.03
2019-02-26T04:12:48.847Z,101062.33
2019-02-26T04:15:17.939Z,101060.61
2019-02-26T04:17:47.625Z,101060.16
2019-02-26T04:20:17.287Z,101058.98
2019-02-26T04:22:50.038Z,101056.48
2019-02-26T04:25:24.641Z,101061.64
2019-02-26T04:28:13.124Z,101064.66
2019-02-26T04:30:56.431Z,101072.84
2019-02-26T04:34:04.423Z,101063.80
2019-02-26T04:37:07.196Z,101071.98
2019-02-26T04:39:48.481Z,101073.61
2019-02-26T04:42:53.627Z,101067.08
2019-02-26T04:45:53.728Z,101072.52
2019-02-26T04:48:32.523Z,101071.66
2019-02-26T04:51:00.983Z,101066.80
2019-02-26T04:53:31.306Z,101063.93
2019-02-26T04:56:00.458Z,101067.54
2019-02-26T04:58:29.744Z,101065.80
2019-02-26T05:00:59.109Z,101061.08
2019-02-26T05:03:27.461Z,101062.89
2019-02-26T05:05:57.248Z,101066.36
2019-02-26T05:08:25.924Z,101057.73
2019-02-26T05:10:57.284Z,101070.23
2019-02-26T05:13:26.513Z,101066.30
2019-02-26T05:15:54.513Z,101073.27
2019-02-26T05:18:23.817Z,101069.36
2019-02-26T05:20:53.058Z,101061.59
2019-02-26T05:23:23.277Z,101059.34
2019-02-26T05:25:51.533Z,101055.44
2019-02-26T05:28:19.906Z,101060.14
2019-02-26T05:30:49.497Z,101059.29
2019-02-26T05:33:18.940Z,101059.79
2019-02-26T05:35:49.014Z,101061.12
2019-02-26T05:38:18.669Z,101071.88
2019-02-26T05:40:48.189Z,101065.78
2019-02-26T05:43:17.153Z,101064.48
2019-02-26T05:45:45.516Z,101063.61
2019-02-26T05:48:16.180Z,101061.44
2019-02-26T05:50:44.744Z,101064.47
2019-02-26T05:53:13.536Z,101060.13
2019-02-26T05:55:44.338Z,101063.14
2019-02-26T05:58:15.187Z,101060.95
2019-02-26T06:00:42.280Z,101060.51
2019-02-26T06:03:13.010Z,101061.61
2019-02-26T06:05:43.415Z,101060.26
2019-02-26T06:08:10.872Z,101068.15
2019-02-26T06:10:39.231Z,101057.27
2019-02-26T06:13:10.086Z,101058.18
2019-02-26T06:15:37.787Z,101057.47
2019-02-26T06:18:06.249Z,101068.29
2019-02-26T06:20:36.621Z,101060.92
2019-02-26T06:23:04.811Z,101060.03
2019-02-26T06:25:33.188Z,101056.14
2019-02-26T06:28:04.480Z,101066.85
2019-02-26T06:30:31.722Z,101069.84
2019-02-26T06:33:04.159Z,101070.80
2019-02-26T06:35:31.550Z,101076.81
2019-02-26T06:38:02.104Z,101074.36
2019-02-26T06:40:32.434Z,101079.48
2019-02-26T06:43:00.589Z,101076.94
2019-02-26T06:45:29.015Z,101080.02
2019-02-26T06:47:58.617Z,101076.44
2019-02-26T06:50:27.035Z,101078.89
2019-02-26T06:52:55.497Z,101084.17
2019-02-26T06:55:23.861Z,101078.39
2019-02-26T06:57:54.998Z,101086.42
2019-02-26T07:00:25.338Z,101084.52
2019-02-26T07:02:52.455Z,101085.10
2019-02-26T07:05:23.947Z,101079.92
2019-02-26T07:07:54.076Z,101085.17
2019-02-26T07:10:24.314Z,101089.88
2019-02-26T07:12:51.247Z,101088.58
2019-02-26T07:15:19.706Z,101091.59
2019-02-26T07:17:48.074Z,101095.98
2019-02-26T07:20:17.718Z,101098.67
2019-02-26T07:22:47.339Z,101095.72
2019-02-26T07:25:18.662Z,101096.16
2019-02-26T07:27:47.150Z,101102.64
2019-02-26T07:30:15.617Z,101108.73
2019-02-26T07:32:47.117Z,101107.06
2019-02-26T07:35:16.632Z,101107.07
2019-02-26T07:37:44.317Z,101117.83
2019-02-26T07:40:15.426Z,101115.30
2019-02-26T07:42:46.061Z,101109.25
2019-02-26T07:45:19.730Z,101111.44
2019-02-26T07:47:48.495Z,101114.89
2019-02-26T07:50:17.495Z,101111.02
2019-02-26T07:52:47.391Z,101102.80
2019-02-26T07:55:17.431Z,101104.96
2019-02-26T07:57:48.002Z,101110.56
2019-02-26T08:00:18.901Z,101112.73
2019-02-26T08:02:47.269Z,101107.09
2019-02-26T08:05:17.034Z,101106.66
2019-02-26T08:07:46.698Z,101110.91
2019-02-26T08:10:19.445Z,101102.19
2019-02-26T08:12:47.424Z,101104.76
2019-02-26T08:15:16.241Z,101103.38
2019-02-26T08:17:47.860Z,101103.30
2019-02-26T08:20:15.525Z,101109.69
2019-02-26T08:22:43.957Z,101109.62
2019-02-26T08:25:13.784Z,101114.33
2019-02-26T08:27:42.289Z,101118.56
2019-02-26T08:30:18.685Z,101119.36
2019-02-26T08:32:48.397Z,101116.22
2019-02-26T08:35:18.810Z,101115.68
2019-02-26T08:37:46.235Z,101124.09
2019-02-26T08:40:15.364Z,101113.97
2019-02-26T08:42:46.365Z,101118.16
2019-02-26T08:45:25.095Z,101116.97
2019-02-26T08:47:51.753Z,101113.33
2019-02-26T08:50:20.223Z,101110.64
2019-02-26T08:52:52.289Z,101107.38
2019-02-26T08:55:21.502Z,101105.56
2019-02-26T08:57:51.266Z,101103.48
2019-02-26T09:00:20.291Z,101100.06
2019-02-26T09:02:53.560Z,101085.57
2019-02-26T09:05:18.915Z,101091.17
2019-02-26T09:07:50.395Z,101098.80
2019-02-26T09:10:20.521Z,101098.55
2019-02-26T09:12:51.940Z,101094.03
2019-02-26T09:15:21.051Z,101096.03
2019-02-26T09:17:49.579Z,101089.11
2019-02-26T09:20:19.174Z,101103.48
2019-02-26T09:22:50.463Z,101091.05
2019-02-26T09:25:22.091Z,101092.70
2019-02-26T09:27:49.303Z,101087.56
2019-02-26T09:30:19.280Z,101086.91
2019-02-26T09:32:48.314Z,101087.92
2019-02-26T09:35:20.374Z,101092.06
2019-02-26T09:37:52.072Z,101093.94
2019-02-26T09:40:23.686Z,101088.65
2019-02-26T09:42:54.517Z,101094.05
2019-02-26T09:45:26.066Z,101092.93
2019-02-26T09:47:55.678Z,101088.45
2019-02-26T09:50:24.520Z,101085.14
2019-02-26T09:52:55.762Z,101088.15
2019-02-26T09:55:23.126Z,101088.52
2019-02-26T09:57:52.409Z,101088.96
2019-02-26T10:00:25.859Z,101080.39
2019-02-26T10:02:53.713Z,101084.44
2019-02-26T10:05:22.450Z,101081.44
2019-02-26T10:07:57.167Z,101080.91
2019-02-26T10:10:27.680Z,101077.14
2019-02-26T10:12:59.912Z,101072.15
2019-02-26T10:15:37.300Z,101068.47
2019-02-26T10:18:09.358Z,101065.25
2019-02-26T10:20:37.097Z,101055.47
2019-02-26T10:23:07.521Z,101054.20
2019-02-26T10:25:38.575Z,101059.78
2019-02-26T10:28:09.602Z,101056.25
2019-02-26T10:30:39.454Z,101059.38
2019-02-26T10:33:08.121Z,101049.28
2019-02-26T10:35:39.707Z,101053.97
2019-02-26T10:38:11.412Z,101051.85
2019-02-26T10:40:53.199Z,101045.58
2019-02-26T10:43:11.939Z,101045.88
2019-02-26T10:45:44.650Z,101046.83
2019-02-26T10:48:21.539Z,101043.05
2019-02-26T10:50:49.656Z,101041.15
2019-02-26T10:53:22.675Z,101034.44
2019-02-26T10:55:51.403Z,101036.04
2019-02-26T10:58:20.164Z,101026.78
2019-02-26T11:00:52.705Z,101034.80
2019-02-26T11:03:20.588Z,101030.34
2019-02-26T11:05:51.995Z,101022.86
2019-02-26T11:08:29.547Z,101018.00
2019-02-26T11:10:57.738Z,101015.36
2019-02-26T11:13:26.356Z,101016.22
2019-02-26T11:15:59.220Z,101011.09
2019-02-26T11:18:26.587Z,101016.52
2019-02-26T11:20:55.973Z,101012.96
2019-02-26T11:23:30.994Z,101016.00
2019-02-26T11:25:56.111Z,101008.44
2019-02-26T11:28:27.294Z,101010.78
2019-02-26T11:30:56.705Z,101007.84
2019-02-26T11:33:25.357Z,101007.70
2019-02-26T11:35:54.622Z,101004.23
2019-02-26T11:38:25.447Z,101004.11
2019-02-26T11:40:54.588Z,101002.54
2019-02-26T11:43:25.997Z,100999.28
2019-02-26T11:45:56.645Z,100982.75
2019-02-26T11:48:28.955Z,100989.22
2019-02-26T11:51:00.795Z,100985.32
2019-02-26T11:53:31.449Z,100989.49
2019-02-26T11:56:02.021Z,100982.77
2019-02-26T11:58:31.024Z,100987.84
2019-02-26T12:00:59.896Z,100983.64
2019-02-26T12:03:31.093Z,100979.28
2019-02-26T12:06:01.003Z,100985.84
2019-02-26T12:08:28.479Z,100985.03
2019-02-26T12:11:01.109Z,100981.03
2019-02-26T12:13:27.737Z,100978.25
2019-02-26T12:15:56.383Z,100973.68
2019-02-26T12:18:24.803Z,100972.27
2019-02-26T12:20:53.190Z,100969.30
2019-02-26T12:23:22.807Z,100971.43
2019-02-26T12:25:53.643Z,100966.70
2019-02-26T12:28:21.397Z,100962.43
2019-02-26T12:30:49.859Z,100958.10
2019-02-26T12:33:18.284Z,100956.98
2019-02-26T12:35:46.688Z,100945.08
2019-02-26T12:38:18.825Z,100942.40
2019-02-26T12:40:47.097Z,100944.64
2019-02-26T12:43:19.155Z,100943.31
2019-02-26T12:45:52.662Z,100938.49
2019-02-26T12:48:22.829Z,100934.91
2019-02-26T12:50:52.844Z,100935.77
2019-02-26T12:53:23.596Z,100929.96
2019-02-26T12:55:54.312Z,100920.78
2019-02-26T12:58:24.407Z,100918.91
2019-02-26T13:00:54.273Z,100914.91
2019-02-26T13:03:24.425Z,100921.64
2019-02-26T13:05:58.477Z,100917.00
2019-02-26T13:08:28.577Z,100911.84
2019-02-26T13:10:58.545Z,100903.05
2019-02-26T13:13:27.221Z,100903.31
2019-02-26T13:15:55.675Z,100893.16
2019-02-26T13:18:27.044Z,100884.18
2019-02-26T13:20:59.459Z,100885.28
2019-02-26T13:23:25.899Z,100882.01
2019-02-26T13:25:54.327Z,100885.90
2019-02-26T13:28:29.342Z,100870.95
2019-02-26T13:30:53.427Z,100872.16
2019-02-26T13:33:27.307Z,100868.19
2019-02-26T13:35:58.203Z,100871.28
2019-02-26T13:38:24.893Z,100870.16
2019-02-26T13:40:52.346Z,100868.34
2019-02-26T13:43:20.903Z,100859.58
2019-02-26T13:45:49.362Z,100856.83
2019-02-26T13:48:18.184Z,100856.94
2019-02-26T13:50:46.646Z,100850.80
2019-02-26T13:53:15.065Z,100847.73
2019-02-26T13:55:43.481Z,100846.92
2019-02-26T13:58:12.338Z,100849.39
2019-02-26T14:00:41.269Z,100841.52
2019-02-26T14:03:09.654Z,100837.03
2019-02-26T14:05:38.548Z,100831.60
2019-02-26T14:08:07.047Z,100833.78
2019-02-26T14:10:35.405Z,100832.41
2019-02-26T14:13:03.954Z,100830.91
2019-02-26T14:15:32.364Z,100831.97
2019-02-26T14:18:01.084Z,100829.30
2019-02-26T14:20:29.507Z,100828.00
2019-02-26T14:22:57.963Z,100830.42
2019-02-26T14:25:26.390Z,100825.12
2019-02-26T14:27:54.847Z,100818.48
2019-02-26T14:30:23.745Z,100820.02
2019-02-26T14:32:52.204Z,100823.55
2019-02-26T14:35:20.627Z,100819.31
2019-02-26T14:37:49.087Z,100821.72
2019-02-26T14:40:19.734Z,100822.75
2019-02-26T14:42:48.180Z,100816.44
2019-02-26T14:45:22.419Z,100814.89
2019-02-26T14:47:50.874Z,100817.44
2019-02-26T14:50:20.367Z,100813.33
2019-02-26T14:52:48.758Z,100815.27
2019-02-26T14:55:17.385Z,100805.84
2019-02-26T14:57:46.120Z,100802.05
2019-02-26T15:00:28.978Z,100806.53
2019-02-26T15:02:57.440Z,100803.95
2019-02-26T15:05:25.931Z,100801.98
2019-02-26T15:07:54.383Z,100796.64
2019-02-26T15:10:22.879Z,100795.38
2019-02-26T15:12:51.327Z,100788.44
2019-02-26T15:15:20.128Z,100785.30
2019-02-26T15:17:48.754Z,100777.14
2019-02-26T15:20:19.106Z,100781.95
2019-02-26T15:22:47.570Z,100779.77
2019-02-26T15:25:19.010Z,100777.93
2019-02-26T15:27:47.425Z,100781.36
2019-02-26T15:30:18.632Z,100782.04
2019-02-26T15:32:47.063Z,100783.80
2019-02-26T15:35:15.595Z,100792.80
2019-02-26T15:37:44.164Z,100788.52
2019-02-26T15:40:18.799Z,100791.07
2019-02-26T15:42:47.295Z,100785.66
2019-02-26T15:45:24.187Z,100785.25
2019-02-26T15:47:52.866Z,100782.95
2019-02-26T15:50:21.895Z,100778.12
2019-02-26T15:52:52.605Z,100778.47
2019-02-26T15:55:28.833Z,100775.64
2019-02-26T15:57:57.735Z,100776.44
2019-02-26T16:00:27.853Z,100776.25
2019-02-26T16:02:58.948Z,100769.48
2019-02-26T16:05:32.670Z,100767.50
2019-02-26T16:08:01.019Z,100769.77
2019-02-26T16:10:29.408Z,100759.78
2019-02-26T16:12:59.403Z,100759.27
2019-02-26T16:15:27.862Z,100762.16
2019-02-26T16:17:58.486Z,100762.05
2019-02-26T16:20:26.388Z,100762.80
2019-02-26T16:22:54.744Z,100764.91
2019-02-26T16:25:23.143Z,100761.28
2019-02-26T16:27:53.653Z,100764.38
2019-02-26T16:30:23.925Z,100762.39
2019-02-26T16:32:52.923Z,100762.61
2019-02-26T16:35:24.811Z,100755.69
2019-02-26T16:37:51.468Z,100757.58
2019-02-26T16:40:20.065Z,100757.62
2019-02-26T16:42:48.494Z,100758.72
2019-02-26T16:45:22.446Z,100761.48
2019-02-26T16:47:50.871Z,100763.04
2019-02-26T16:50:22.068Z,100763.72
2019-02-26T16:52:50.564Z,100758.31
2019-02-26T16:55:20.283Z,100763.55
2019-02-26T16:57:48.888Z,100765.95
2019-02-26T17:00:23.272Z,100764.05
2019-02-26T17:02:51.758Z,100755.12
2019-02-26T17:05:20.207Z,100761.98
2019-02-26T17:07:48.633Z,100756.02
2019-02-26T17:10:22.648Z,100758.50
2019-02-26T17:12:55.604Z,100761.16
2019-02-26T17:15:34.860Z,100762.52
2019-02-26T17:18:03.288Z,100761.59
2019-02-26T17:20:31.738Z,100766.80
2019-02-26T17:23:00.090Z,100770.27
2019-02-26T17:25:29.078Z,100771.59
2019-02-26T17:27:57.592Z,100772.66
2019-02-26T17:30:26.132Z,100770.80
2019-02-26T17:32:54.533Z,100767.28
2019-02-26T17:35:22.994Z,100766.24
2019-02-26T17:37:51.430Z,100761.59
2019-02-26T17:40:23.863Z,100760.62
2019-02-26T17:42:54.108Z,100768.02
2019-02-26T17:45:37.213Z,100765.96
2019-02-26T17:48:06.981Z,100766.13
2019-02-26T17:50:40.177Z,100768.98
2019-02-26T17:53:10.396Z,100770.41
2019-02-26T17:55:38.775Z,100771.55
2019-02-26T17:58:09.769Z,100773.48
2019-02-26T18:00:38.967Z,100776.10
2019-02-26T18:03:07.679Z,100774.95
2019-02-26T18:05:39.338Z,100775.42
2019-02-26T18:08:06.551Z,100775.86
2019-02-26T18:10:36.570Z,100779.87
2019-02-26T18:13:05.355Z,100781.93
2019-02-26T18:15:33.779Z,100782.39
2019-02-26T18:18:02.192Z,100780.17
2019-02-26T18:20:30.548Z,100789.14
2019-02-26T18:23:00.184Z,100791.80
2019-02-26T18:25:29.252Z,100791.28
2019-02-26T18:27:58.008Z,100785.38
2019-02-26T18:30:27.695Z,100786.69
2019-02-26T18:32:58.853Z,100787.96
2019-02-26T18:35:26.231Z,100785.48
2019-02-26T18:37:54.628Z,100787.65
2019-02-26T18:40:23.300Z,100790.69
2019-02-26T18:42:52.063Z,100787.84
2019-02-26T18:45:28.941Z,100789.95
2019-02-26T18:47:57.602Z,100789.97
2019-02-26T18:50:28.414Z,100787.34
2019-02-26T18:52:58.292Z,100792.01
2019-02-26T18:55:28.337Z,100793.91
2019-02-26T18:57:57.277Z,100787.25
2019-02-26T19:00:32.845Z,100791.36
2019-02-26T19:03:01.301Z,100791.45
2019-02-26T19:05:29.717Z,100797.00
2019-02-26T19:07:58.166Z,100790.03
2019-02-26T19:10:26.512Z,100788.20
2019-02-26T19:12:54.976Z,100784.99
2019-02-26T19:15:28.700Z,100791.94
2019-02-26T19:17:59.835Z,100792.31
2019-02-26T19:20:29.563Z,100787.14
2019-02-26T19:22:58.944Z,100789.23
2019-02-26T19:25:28.138Z,100780.77
2019-02-26T19:27:56.548Z,100787.66
2019-02-26T19:30:24.966Z,100787.27
2019-02-26T19:32:53.348Z,100782.82
2019-02-26T19:35:21.788Z,100786.29
2019-02-26T19:38:00.868Z,100784.47
2019-02-26T19:40:41.372Z,100785.77
2019-02-26T19:43:09.825Z,100783.31
2019-02-26T19:45:38.175Z,100786.77
2019-02-26T19:48:06.641Z,100789.90
2019-02-26T19:50:35.069Z,100788.78
2019-02-26T19:53:03.525Z,100788.83
2019-02-26T19:55:40.489Z,100788.11
2019-02-26T19:58:08.986Z,100785.25
2019-02-26T20:00:37.404Z,100793.96
2019-02-26T20:03:06.248Z,100787.38
2019-02-26T20:05:34.806Z,100794.73
2019-02-26T20:08:06.030Z,100798.00
2019-02-26T20:10:34.627Z,100796.16
2019-02-26T20:13:04.136Z,100786.84
2019-02-26T20:15:34.052Z,100790.33
2019-02-26T20:18:02.636Z,100793.33
2019-02-26T20:20:38.144Z,100790.33
2019-02-26T20:23:05.049Z,100790.25
2019-02-26T20:25:31.542Z,100790.14
2019-02-26T20:28:05.339Z,100796.06
2019-02-26T20:30:30.103Z,100788.17
2019-02-26T20:33:01.556Z,100789.20
2019-02-26T20:35:50.996Z,100785.17
2019-02-26T20:38:19.450Z,100786.94
2019-02-26T20:40:49.697Z,100785.25
2019-02-26T20:43:18.467Z,100786.75
2019-02-26T20:45:48.666Z,100789.33
2019-02-26T20:48:17.165Z,100781.48
2019-02-26T20:50:45.552Z,100784.97
2019-02-26T20:53:13.978Z,100778.20
2019-02-26T20:55:42.427Z,100789.53
2019-02-26T20:58:12.400Z,100787.05
2019-02-26T21:00:42.527Z,100785.44
2019-02-26T21:03:11.233Z,100786.27
2019-02-26T21:05:44.331Z,100788.51
2019-02-26T21:08:12.210Z,100788.91
2019-02-26T21:10:41.348Z,100786.16
2019-02-26T21:13:13.088Z,100782.09
2019-02-26T21:15:44.781Z,100784.24
2019-02-26T21:18:17.300Z,100790.83
2019-02-26T21:20:49.355Z,100780.41
2019-02-26T21:23:27.424Z,100778.82
2019-02-26T21:26:00.828Z,100774.70
2019-02-26T21:28:34.881Z,100780.02
2019-02-26T21:31:13.384Z,100779.58
2019-02-26T21:33:51.096Z,100779.14
2019-02-26T21:36:21.910Z,100775.41
2019-02-26T21:38:56.489Z,100775.44
2019-02-26T21:41:27.838Z,100780.81
2019-02-26T21:43:58.266Z,100779.37
2019-02-26T21:46:27.380Z,100781.76
2019-02-26T21:48:57.542Z,100780.67
2019-02-26T21:51:28.113Z,100783.67
2019-02-26T21:53:57.802Z,100777.38
2019-02-26T21:56:28.679Z,100781.73
2019-02-26T21:58:59.724Z,100779.54
2019-02-26T22:01:36.315Z,100775.76
2019-02-26T22:04:05.380Z,100784.34
2019-02-26T22:06:34.535Z,100782.48
2019-02-26T22:09:03.974Z,100791.99
2019-02-26T22:11:35.679Z,100792.69
2019-02-26T22:14:05.887Z,100793.11
2019-02-26T22:16:35.314Z,100787.78
2019-02-26T22:19:09.242Z,100787.33
2019-02-26T22:21:39.321Z,100787.04
2019-02-26T22:24:10.925Z,100790.75
2019-02-26T22:26:39.537Z,100788.97
2019-02-26T22:29:08.132Z,100790.67
2019-02-26T22:31:36.853Z,100785.37
2019-02-26T22:34:05.348Z,100786.22
2019-02-26T22:36:35.709Z,100783.42
2019-02-26T22:39:06.512Z,100788.16
2019-02-26T22:41:35.734Z,100784.94
2019-02-26T22:44:04.358Z,100782.97
2019-02-26T22:46:39.523Z,100778.88
2019-02-26T22:49:09.090Z,100784.66
2019-02-26T22:51:37.697Z,100784.31
2019-02-26T22:54:09.870Z,100785.77
2019-02-26T22:56:39.917Z,100776.35
2019-02-26T22:59:08.562Z,100775.07
2019-02-26T23:01:41.545Z,100775.16
2019-02-26T23:04:12.249Z,100779.52
2019-02-26T23:06:41.955Z,100775.84
2019-02-26T23:09:10.991Z,100778.61
2019-02-26T23:11:39.871Z,100776.52
2019-02-26T23:14:08.614Z,100779.02
2019-02-26T23:16:37.219Z,100777.45
2019-02-26T23:19:05.681Z,100777.13
2019-02-26T23:21:34.114Z,100780.46
2019-02-26T23:24:02.584Z,100779.65
2019-02-26T23:26:31.314Z,100777.65
2019-02-26T23:28:59.791Z,100775.70
2019-02-26T23:31:28.143Z,100781.25
2019-02-26T23:33:56.614Z,100777.06
2019-02-26T23:36:25.772Z,100774.05
2019-02-26T23:38:55.319Z,100776.65
2019-02-26T23:41:23.678Z,100787.48
2019-02-26T23:43:52.341Z,100774.02
2019-02-26T23:46:20.765Z,100773.05
2019-02-26T23:48:49.325Z,100773.77
2019-02-26T23:51:20.127Z,100781.02
2019-02-26T23:53:47.797Z,100782.02
2019-02-26T23:56:16.743Z,100780.55
2019-02-26T23:58:46.278Z,100780.58
